Time;durP1;ratioP1;P1;durP2;ratioP2;P2;SDS_P1;SDS_P2;PMS_P1;PMS_P2;Temp;Humidity;BMP_temperature;BMP_pressure;BME280_temperature;BME280_humidity;BME280_pressure;Samples;Min_cycle;Max_cycle;Signal;HPM_P1;HPM_P2
2021/08/13 00:01:39;;;;;;;;;;;;;;;;;;5077610;28;20294;-60
2021/08/13 00:04:05;;;;;;;;;;;;;;;;;;5076254;28;19913;-60
2021/08/13 00:06:31;;;;;;;;;;;;;;;;;;5076427;28;19913;-60
2021/08/13 00:08:57;;;;;;;;;;;;;;;;;;5075299;28;19916;-60
2021/08/13 00:11:23;;;;;;;;;;;;;;;;;;5074215;28;19926;-60
2021/08/13 00:13:49;;;;;;;;;;;;;;;;;;5078752;28;19917;-60
2021/08/13 00:16:15;;;;;;;;;;;;;;;;;;5075883;28;19967;-60
2021/08/13 00:18:40;;;;;;;;;;;;;;;;;;5076061;28;19919;-60
2021/08/13 00:21:06;;;;;;;;;;;;;;;;;;5076274;28;19919;-60
2021/08/13 00:23:32;;;;;;;;;;;;;;;;;;5072018;28;19913;-60
2021/08/13 00:25:58;;;;;;;;;;;;;;;;;;5080004;28;19915;-60
2021/08/13 00:28:24;;;;;;;;;;;;;;;;;;5075455;28;19935;-60
2021/08/13 00:30:50;;;;;;;;;;;;;;;;;;5075941;28;19921;-60
2021/08/13 00:33:16;;;;;;;;;;;;;;;;;;5075965;28;19916;-60
2021/08/13 00:35:42;;;;;;;;;;;;;;;;;;5073111;28;19920;-60
2021/08/13 00:38:08;;;;;;;;;;;;;;;;;;5076863;28;20338;-60
2021/08/13 00:40:34;;;;;;;;;;;;;;;;;;5077874;28;19912;-60
2021/08/13 00:42:59;;;;;;;;;;;;;;;;;;5075947;28;19931;-60
2021/08/13 00:45:25;;;;;;;;;;;;;;;;;;5075579;28;19919;-60
2021/08/13 00:47:51;;;;;;;;;;;;;;;;;;5074125;28;20283;-60
2021/08/13 00:50:17;;;;;;;;;;;;;;;;;;5074780;28;19909;-60
2021/08/13 00:52:43;;;;;;;;;;;;;;;;;;5077017;28;19947;-61
2021/08/13 00:55:09;;;;;;;;;;;;;;;;;;5075575;28;19924;-60
2021/08/13 00:57:35;;;;;;;;;;;;;;;;;;5075727;28;19924;-60
2021/08/13 01:00:01;;;;;;;;;;;;;;;;;;5059560;28;19935;-60
2021/08/13 01:02:26;;;;;;;;;;;;;;;;;;5072198;28;19913;-60
2021/08/13 01:04:52;;;;;;;;;;;;;;;;;;5077242;28;20002;-60
2021/08/13 01:07:18;;;;;;;;;;;;;;;;;;5075486;28;20368;-60
2021/08/13 01:09:44;;;;;;;;;;;;;;;;;;5075477;28;19912;-60
2021/08/13 01:12:10;;;;;;;;;;;;;;;;;;5076562;28;19997;-60
2021/08/13 01:14:36;;;;;;;;;;;;;;;;;;5070531;28;19939;-60
2021/08/13 01:17:02;;;;;;;;;;;;;;;;;;5078126;28;19908;-60
2021/08/13 01:19:27;;;;;;;;;;;;;;;;;;5077147;28;20414;-60
2021/08/13 01:21:53;;;;;;;;;;;;;;;;;;5074721;28;19920;-60
2021/08/13 01:24:19;;;;;;;;;;;;;;;;;;5074622;28;19916;-60
2021/08/13 01:26:45;;;;;;;;;;;;;;;;;;5072421;28;19913;-60
2021/08/13 01:29:11;;;;;;;;;;;;;;;;;;5075475;28;19908;-60
2021/08/13 01:31:37;;;;;;;;;;;;;;;;;;5076143;28;19915;-60
2021/08/13 01:34:03;;;;;;;;;;;;;;;;;;5074655;28;19963;-60
2021/08/13 01:36:29;;;;;;;;;;;;;;;;;;5074472;28;19924;-60
2021/08/13 01:38:55;;;;;;;;;;;;;;;;;;5073425;28;19942;-60
2021/08/13 01:41:20;;;;;;;;;;;;;;;;;;5073260;28;19908;-60
2021/08/13 01:43:46;;;;;;;;;;;;;;;;;;5076705;28;20008;-60
2021/08/13 01:46:12;;;;;;;;;;;;;;;;;;5074446;28;19912;-60
2021/08/13 01:48:38;;;;;;;;;;;;;;;;;;5074399;28;19920;-60
2021/08/13 01:51:05;;;;;;;;;;;;;;;;;;5074391;28;20003;-60
2021/08/13 01:53:31;;;;;;;;;;;;;;;;;;5070503;28;19916;-60
2021/08/13 01:55:57;;;;;;;;;;;;;;;;;;5078036;28;19921;-60
2021/08/13 01:58:22;;;;;;;;;;;;;;;;;;5074338;28;20252;-60
2021/08/13 02:00:48;;;;;;;;;;;;;;;;;;5074019;28;19939;-60
2021/08/13 02:03:14;;;;;;;;;;;;;;;;;;5074049;28;19908;-60
2021/08/13 02:05:40;;;;;;;;;;;;;;;;;;5071112;28;19913;-60
2021/08/13 02:08:06;;;;;;;;;;;;;;;;;;5075951;28;19954;-60
2021/08/13 02:10:32;;;;;;;;;;;;;;;;;;5075243;28;19918;-60
2021/08/13 02:12:58;;;;;;;;;;;;;;;;;;5073921;28;19909;-60
2021/08/13 02:15:24;;;;;;;;;;;;;;;;;;5072591;28;20394;-60
2021/08/13 02:17:49;;;;;;;;;;;;;;;;;;5071705;28;19970;-60
2021/08/13 02:20:15;;;;;;;;;;;;;;;;;;5074051;28;20391;-60
2021/08/13 02:22:41;;;;;;;;;;;;;;;;;;5075246;28;19909;-60
2021/08/13 02:25:07;;;;;;;;;;;;;;;;;;5073598;28;19938;-60
2021/08/13 02:27:33;;;;;;;;;;;;;;;;;;5073347;28;19913;-60
2021/08/13 02:29:59;;;;;;;;;;;;;;;;;;5073111;28;19916;-60
2021/08/13 02:32:25;;;;;;;;;;;;;;;;;;5070928;28;19920;-60
2021/08/13 02:34:51;;;;;;;;;;;;;;;;;;5076519;28;19975;-60
2021/08/13 02:37:16;;;;;;;;;;;;;;;;;;5073804;28;19920;-60
2021/08/13 02:39:42;;;;;;;;;;;;;;;;;;5073273;28;19912;-60
2021/08/13 02:42:08;;;;;;;;;;;;;;;;;;5073346;28;19939;-60
2021/08/13 02:44:34;;;;;;;;;;;;;;;;;;5069555;28;19959;-60
2021/08/13 02:47:00;;;;;;;;;;;;;;;;;;5076267;28;19909;-60
2021/08/13 02:49:26;;;;;;;;;;;;;;;;;;5073752;28;20417;-60
2021/08/13 02:51:52;;;;;;;;;;;;;;;;;;5073530;28;19913;-60
2021/08/13 02:54:18;;;;;;;;;;;;;;;;;;5073406;28;20325;-60
2021/08/13 02:56:44;;;;;;;;;;;;;;;;;;5070302;28;20020;-60
2021/08/13 02:59:10;;;;;;;;;;;;;;;;;;5073375;28;19970;-60
2021/08/13 03:01:36;;;;;;;;;;;;;;;;;;5074623;28;19915;-60
2021/08/13 03:04:02;;;;;;;;;;;;;;;;;;5073483;28;19957;-60
2021/08/13 03:06:28;;;;;;;;;;;;;;;;;;5073009;28;20264;-60
2021/08/13 03:08:54;;;;;;;;;;;;;;;;;;5071606;28;19966;-60
2021/08/13 03:11:19;;;;;;;;;;;;;;;;;;5071650;28;19913;-60
2021/08/13 03:13:45;;;;;;;;;;;;;;;;;;5075325;28;20595;-60
2021/08/13 03:16:11;;;;;;;;;;;;;;;;;;5073302;28;19927;-60
2021/08/13 03:18:37;;;;;;;;;;;;;;;;;;5072855;28;19913;-60
2021/08/13 03:21:03;;;;;;;;;;;;;;;;;;5072479;28;19919;-60
2021/08/13 03:23:29;;;;;;;;;;;;;;;;;;5069594;28;19985;-60
2021/08/13 03:25:55;;;;;;;;;;;;;;;;;;5076148;28;19962;-60
2021/08/13 03:28:21;;;;;;;;;;;;;;;;;;5072552;28;19952;-60
2021/08/13 03:30:46;;;;;;;;;;;;;;;;;;5072674;28;20395;-60
2021/08/13 03:33:12;;;;;;;;;;;;;;;;;;5073116;28;19919;-60
2021/08/13 03:35:38;;;;;;;;;;;;;;;;;;5069334;28;20273;-60
2021/08/13 03:38:04;;;;;;;;;;;;;;;;;;5075240;28;20007;-60
2021/08/13 03:40:30;;;;;;;;;;;;;;;;;;5073463;28;19908;-60
2021/08/13 03:42:56;;;;;;;;;;;;;;;;;;5072511;28;19913;-60
2021/08/13 03:45:22;;;;;;;;;;;;;;;;;;5072934;28;19923;-60
2021/08/13 03:47:48;;;;;;;;;;;;;;;;;;5070837;28;19912;-60
2021/08/13 03:50:14;;;;;;;;;;;;;;;;;;5072916;28;19977;-60
2021/08/13 03:52:39;;;;;;;;;;;;;;;;;;5073876;28;19912;-60
2021/08/13 03:55:05;;;;;;;;;;;;;;;;;;5072665;28;19946;-60
2021/08/13 03:57:31;;;;;;;;;;;;;;;;;;5072402;28;20275;-60
2021/08/13 03:59:57;;;;;;;;;;;;;;;;;;5071737;28;19923;-60
2021/08/13 04:02:23;;;;;;;;;;;;;;;;;;5070408;28;20410;-60
2021/08/13 04:04:49;;;;;;;;;;;;;;;;;;5075117;28;19913;-60
2021/08/13 04:07:15;;;;;;;;;;;;;;;;;;5072843;28;20399;-60
2021/08/13 04:09:40;;;;;;;;;;;;;;;;;;5072439;28;19947;-60
2021/08/13 04:12:06;;;;;;;;;;;;;;;;;;5072073;28;19912;-60
2021/08/13 04:14:32;;;;;;;;;;;;;;;;;;5067906;28;19924;-60
2021/08/13 04:16:58;;;;;;;;;;;;;;;;;;5076246;28;19951;-60
2021/08/13 04:19:24;;;;;;;;;;;;;;;;;;5072261;28;19913;-60
2021/08/13 04:21:50;;;;;;;;;;;;;;;;;;5072206;28;19924;-60
2021/08/13 04:24:16;;;;;;;;;;;;;;;;;;5072335;28;20402;-60
2021/08/13 04:26:42;;;;;;;;;;;;;;;;;;5069566;28;19913;-60
2021/08/13 04:29:08;;;;;;;;;;;;;;;;;;5073622;28;20340;-60
2021/08/13 04:31:33;;;;;;;;;;;;;;;;;;5073163;28;19909;-61
2021/08/13 04:33:59;;;;;;;;;;;;;;;;;;5072619;28;20387;-60
2021/08/13 04:36:27;;;;;;;;;;;;;;;;;;5072357;28;20311;-60
2021/08/13 04:38:53;;;;;;;;;;;;;;;;;;5071823;28;19928;-61
2021/08/13 04:41:19;;;;;;;;;;;;;;;;;;5074802;28;19908;-60
2021/08/13 04:43:44;;;;;;;;;;;;;;;;;;5077742;28;19951;-60
2021/08/13 04:46:10;;;;;;;;;;;;;;;;;;5075469;28;20383;-60
2021/08/13 04:48:36;;;;;;;;;;;;;;;;;;5075886;28;19913;-60
2021/08/13 04:51:02;;;;;;;;;;;;;;;;;;5075161;28;20021;-60
2021/08/13 04:53:28;;;;;;;;;;;;;;;;;;5072213;28;19919;-60
2021/08/13 04:55:54;;;;;;;;;;;;;;;;;;5078789;28;19917;-60
2021/08/13 04:58:20;;;;;;;;;;;;;;;;;;5075456;28;19923;-60
2021/08/13 05:00:48;;;;;;;;;;;;;;;;;;5075375;28;20338;-60
2021/08/13 05:03:13;;;;;;;;;;;;;;;;;;5075729;28;19912;-60
2021/08/13 05:05:39;;;;;;;;;;;;;;;;;;5071466;28;19917;-60
2021/08/13 05:08:05;;;;;;;;;;;;;;;;;;5077669;28;20007;-60
2021/08/13 05:10:31;;;;;;;;;;;;;;;;;;5075820;28;20338;-60
2021/08/13 05:12:57;;;;;;;;;;;;;;;;;;5075424;28;20278;-60
2021/08/13 05:15:23;;;;;;;;;;;;;;;;;;5075226;28;19972;-60
2021/08/13 05:17:49;;;;;;;;;;;;;;;;;;5073070;28;19913;-60
2021/08/13 05:20:15;;;;;;;;;;;;;;;;;;5074971;28;19908;-60
2021/08/13 05:22:41;;;;;;;;;;;;;;;;;;5076631;28;19915;-60
2021/08/13 05:25:07;;;;;;;;;;;;;;;;;;5075104;28;20374;-60
2021/08/13 05:27:32;;;;;;;;;;;;;;;;;;5075241;28;19913;-60
2021/08/13 05:29:58;;;;;;;;;;;;;;;;;;5073575;28;19912;-60
2021/08/13 05:32:24;;;;;;;;;;;;;;;;;;5072545;28;19920;-60
2021/08/13 05:34:50;;;;;;;;;;;;;;;;;;5077093;28;19904;-60
2021/08/13 05:37:16;;;;;;;;;;;;;;;;;;5074978;28;20403;-61
2021/08/13 05:39:43;;;;;;;;;;;;;;;;;;5074940;28;19966;-60
2021/08/13 05:42:09;;;;;;;;;;;;;;;;;;5074503;28;19912;-60
2021/08/13 05:44:35;;;;;;;;;;;;;;;;;;5070040;28;19939;-60
2021/08/13 05:47:01;;;;;;;;;;;;;;;;;;5078313;28;19916;-60
2021/08/13 05:49:27;;;;;;;;;;;;;;;;;;5074468;28;20118;-60
2021/08/13 05:51:52;;;;;;;;;;;;;;;;;;5074343;28;20376;-60
2021/08/13 05:54:18;;;;;;;;;;;;;;;;;;5074648;28;19951;-60
2021/08/13 05:56:44;;;;;;;;;;;;;;;;;;5071777;28;19927;-60
2021/08/13 05:59:10;;;;;;;;;;;;;;;;;;5075011;28;20058;-60
2021/08/13 06:01:36;;;;;;;;;;;;;;;;;;5076074;28;19908;-60
2021/08/13 06:04:02;;;;;;;;;;;;;;;;;;5073795;28;20321;-60
2021/08/13 06:06:28;;;;;;;;;;;;;;;;;;5073998;28;19913;-60
2021/08/13 06:08:54;;;;;;;;;;;;;;;;;;5073001;28;19920;-60
2021/08/13 06:11:19;;;;;;;;;;;;;;;;;;5072988;28;19912;-60
2021/08/13 06:13:45;;;;;;;;;;;;;;;;;;5075978;28;20027;-60
2021/08/13 06:16:11;;;;;;;;;;;;;;;;;;5073212;28;20398;-60
2021/08/13 06:18:37;;;;;;;;;;;;;;;;;;5073880;28;19912;-60
2021/08/13 06:21:03;;;;;;;;;;;;;;;;;;5073837;28;19912;-60
2021/08/13 06:23:29;;;;;;;;;;;;;;;;;;5071373;28;19973;-60
2021/08/13 06:25:55;;;;;;;;;;;;;;;;;;5077111;28;19908;-60
2021/08/13 06:28:21;;;;;;;;;;;;;;;;;;5073414;28;20474;-60
2021/08/13 06:30:47;;;;;;;;;;;;;;;;;;5073816;28;19913;-60
2021/08/13 06:33:13;;;;;;;;;;;;;;;;;;5058604;28;19987;-60
2021/08/13 06:35:39;;;;;;;;;;;;;;;;;;5070004;28;20019;-60
2021/08/13 06:38:05;;;;;;;;;;;;;;;;;;5075758;28;19912;-60
2021/08/13 06:40:31;;;;;;;;;;;;;;;;;;5074110;28;19909;-60
2021/08/13 06:42:57;;;;;;;;;;;;;;;;;;5073640;28;20265;-60
2021/08/13 06:45:26;;;;;;;;;;;;;;;;;;5073588;28;19912;-60
2021/08/13 06:47:52;;;;;;;;;;;;;;;;;;5070866;28;19912;-60
2021/08/13 06:50:17;;;;;;;;;;;;;;;;;;5072813;28;19915;-60
2021/08/13 06:52:43;;;;;;;;;;;;;;;;;;5090740;28;19916;-60
2021/08/13 06:55:09;;;;;;;;;;;;;;;;;;5073449;28;20203;-60
2021/08/13 06:57:35;;;;;;;;;;;;;;;;;;5073525;28;20053;-60
2021/08/13 07:00:01;;;;;;;;;;;;;;;;;;5072518;28;19912;-60
2021/08/13 07:02:27;;;;;;;;;;;;;;;;;;5069133;28;20361;-60
2021/08/13 07:04:53;;;;;;;;;;;;;;;;;;5076059;28;19915;-60
2021/08/13 07:07:18;;;;;;;;;;;;;;;;;;5073399;28;19912;-60
2021/08/13 07:09:46;;;;;;;;;;;;;;;;;;5072906;28;19913;-60
2021/08/13 07:12:12;;;;;;;;;;;;;;;;;;5073126;28;19959;-60
2021/08/13 07:14:38;;;;;;;;;;;;;;;;;;5069212;28;19929;-60
2021/08/13 07:17:04;;;;;;;;;;;;;;;;;;5074912;28;19932;-60
2021/08/13 07:19:30;;;;;;;;;;;;;;;;;;5073188;28;20362;-60
2021/08/13 07:21:55;;;;;;;;;;;;;;;;;;5072891;28;19928;-60
2021/08/13 07:24:23;;;;;;;;;;;;;;;;;;5073399;28;19912;-60
2021/08/13 07:26:48;;;;;;;;;;;;;;;;;;5071057;28;19956;-60
2021/08/13 07:29:14;;;;;;;;;;;;;;;;;;5072843;28;19955;-60
2021/08/13 07:31:40;;;;;;;;;;;;;;;;;;5073673;28;19916;-60
2021/08/13 07:34:06;;;;;;;;;;;;;;;;;;5073181;28;19913;-60
2021/08/13 07:36:32;;;;;;;;;;;;;;;;;;5072843;28;19959;-60
2021/08/13 07:38:58;;;;;;;;;;;;;;;;;;5071836;28;19995;-59
2021/08/13 07:41:24;;;;;;;;;;;;;;;;;;5070301;28;19920;-60
2021/08/13 07:43:50;;;;;;;;;;;;;;;;;;5075466;28;20146;-60
2021/08/13 07:46:15;;;;;;;;;;;;;;;;;;5072539;28;20281;-60
2021/08/13 07:48:41;;;;;;;;;;;;;;;;;;5072593;28;19913;-60
2021/08/13 07:51:07;;;;;;;;;;;;;;;;;;5072761;28;20368;-60
2021/08/13 07:53:33;;;;;;;;;;;;;;;;;;5068035;28;19916;-61
2021/08/13 07:55:59;;;;;;;;;;;;;;;;;;5076277;28;19923;-61
2021/08/13 07:58:25;;;;;;;;;;;;;;;;;;5072793;28;19959;-60
2021/08/13 08:00:52;;;;;;;;;;;;;;;;;;5072191;28;19912;-61
2021/08/13 08:03:18;;;;;;;;;;;;;;;;;;5072441;28;20329;-69
2021/08/13 08:05:44;;;;;;;;;;;;;;;;;;5069761;28;19913;-69
2021/08/13 08:08:10;;;;;;;;;;;;;;;;;;5073200;28;19940;-70
2021/08/13 08:10:36;;;;;;;;;;;;;;;;;;5073617;28;19922;-69
2021/08/13 08:13:02;;;;;;;;;;;;;;;;;;5072840;28;19909;-69
2021/08/13 08:15:28;;;;;;;;;;;;;;;;;;5075415;28;19927;-69
2021/08/13 08:17:53;;;;;;;;;;;;;;;;;;5074779;28;19994;-69
2021/08/13 08:20:19;;;;;;;;;;;;;;;;;;5075389;28;19912;-69
2021/08/13 08:22:45;;;;;;;;;;;;;;;;;;5077619;28;20284;-69
2021/08/13 08:25:11;;;;;;;;;;;;;;;;;;5076280;28;20042;-69
2021/08/13 08:27:37;;;;;;;;;;;;;;;;;;5075921;28;20383;-69
2021/08/13 08:30:03;;;;;;;;;;;;;;;;;;5075839;28;19919;-69
2021/08/13 08:32:29;;;;;;;;;;;;;;;;;;5072385;28;19992;-69
2021/08/13 08:34:55;;;;;;;;;;;;;;;;;;5078682;28;19913;-69
2021/08/13 08:37:21;;;;;;;;;;;;;;;;;;5075648;28;19949;-69
2021/08/13 08:39:47;;;;;;;;;;;;;;;;;;5075876;28;20443;-69
2021/08/13 08:42:13;;;;;;;;;;;;;;;;;;5076112;28;19912;-69
2021/08/13 08:44:39;;;;;;;;;;;;;;;;;;5071720;28;19927;-69
2021/08/13 08:47:05;;;;;;;;;;;;;;;;;;5078088;28;19908;-69
2021/08/13 08:49:31;;;;;;;;;;;;;;;;;;5076138;28;20226;-69
2021/08/13 08:51:57;;;;;;;;;;;;;;;;;;5075822;28;19991;-69
2021/08/13 08:54:24;;;;;;;;;;;;;;;;;;5075351;28;20383;-69
2021/08/13 08:56:50;;;;;;;;;;;;;;;;;;5073386;28;20031;-69
2021/08/13 08:59:17;;;;;;;;;;;;;;;;;;5075569;28;19917;-69
2021/08/13 09:01:43;;;;;;;;;;;;;;;;;;5076741;28;19908;-69
2021/08/13 09:04:09;;;;;;;;;;;;;;;;;;5075264;28;20489;-69
2021/08/13 09:06:35;;;;;;;;;;;;;;;;;;5075426;28;19991;-69
2021/08/13 09:09:03;;;;;;;;;;;;;;;;;;5074842;28;19912;-69
2021/08/13 09:11:28;;;;;;;;;;;;;;;;;;5071349;28;19967;-69
2021/08/13 09:13:54;;;;;;;;;;;;;;;;;;5077638;28;19927;-69
2021/08/13 09:16:20;;;;;;;;;;;;;;;;;;5075352;28;19924;-69
2021/08/13 09:18:46;;;;;;;;;;;;;;;;;;5075307;28;19935;-69
2021/08/13 09:21:12;;;;;;;;;;;;;;;;;;5074567;28;19997;-69
2021/08/13 09:23:38;;;;;;;;;;;;;;;;;;5071429;28;20318;-69
2021/08/13 09:26:04;;;;;;;;;;;;;;;;;;5077280;28;19908;-69
2021/08/13 09:28:30;;;;;;;;;;;;;;;;;;5075361;28;19912;-69
2021/08/13 09:30:55;;;;;;;;;;;;;;;;;;5074797;28;19919;-69
2021/08/13 09:33:21;;;;;;;;;;;;;;;;;;5074999;28;19912;-69
2021/08/13 09:35:47;;;;;;;;;;;;;;;;;;5072158;28;20351;-69
2021/08/13 09:38:13;;;;;;;;;;;;;;;;;;5075287;28;19912;-69
2021/08/13 09:40:39;;;;;;;;;;;;;;;;;;5075576;28;19916;-69
2021/08/13 09:43:05;;;;;;;;;;;;;;;;;;5074412;28;19959;-69
2021/08/13 09:45:31;;;;;;;;;;;;;;;;;;5059450;28;19912;-68
2021/08/13 09:47:57;;;;;;;;;;;;;;;;;;5073231;28;19924;-70
2021/08/13 09:50:23;;;;;;;;;;;;;;;;;;5072567;28;19920;-70
2021/08/13 09:52:48;;;;;;;;;;;;;;;;;;5076219;28;19982;-70
2021/08/13 09:55:14;;;;;;;;;;;;;;;;;;5074429;28;19922;-69
2021/08/13 09:57:40;;;;;;;;;;;;;;;;;;5074100;28;20289;-69
2021/08/13 10:00:06;;;;;;;;;;;;;;;;;;5058991;28;19912;-69
2021/08/13 10:02:32;;;;;;;;;;;;;;;;;;5070231;28;20287;-69
2021/08/13 10:04:58;;;;;;;;;;;;;;;;;;5077837;28;19908;-69
2021/08/13 10:07:24;;;;;;;;;;;;;;;;;;5073276;28;20253;-69
2021/08/13 10:09:52;;;;;;;;;;;;;;;;;;5074339;28;19951;-69
2021/08/13 10:12:18;;;;;;;;;;;;;;;;;;5073969;28;19995;-69
2021/08/13 10:14:44;;;;;;;;;;;;;;;;;;5070931;28;20014;-69
2021/08/13 10:17:10;;;;;;;;;;;;;;;;;;5073998;28;19920;-70
2021/08/13 10:19:36;;;;;;;;;;;;;;;;;;5075327;28;19912;-70
2021/08/13 10:22:01;;;;;;;;;;;;;;;;;;5073850;28;19913;-69
2021/08/13 10:24:27;;;;;;;;;;;;;;;;;;5073660;28;19917;-69
2021/08/13 10:26:53;;;;;;;;;;;;;;;;;;5072224;28;19920;-69
2021/08/13 10:29:19;;;;;;;;;;;;;;;;;;5072745;28;20342;-69
2021/08/13 10:31:45;;;;;;;;;;;;;;;;;;5074655;28;19913;-69
2021/08/13 10:34:11;;;;;;;;;;;;;;;;;;5073859;28;19912;-69
2021/08/13 10:36:38;;;;;;;;;;;;;;;;;;5072664;28;19920;-69
2021/08/13 10:39:04;;;;;;;;;;;;;;;;;;5073149;28;19916;-69
2021/08/13 10:41:29;;;;;;;;;;;;;;;;;;5069194;28;20062;-69
2021/08/13 10:43:55;;;;;;;;;;;;;;;;;;5076686;28;20303;-69
2021/08/13 10:46:21;;;;;;;;;;;;;;;;;;5073448;28;19912;-69
2021/08/13 10:48:47;;;;;;;;;;;;;;;;;;5073441;28;20427;-69
2021/08/13 10:51:13;;;;;;;;;;;;;;;;;;5073598;28;19912;-69
2021/08/13 10:53:39;;;;;;;;;;;;;;;;;;5069680;28;20051;-70
2021/08/13 10:56:05;;;;;;;;;;;;;;;;;;5074912;28;19942;-69
2021/08/13 10:58:31;;;;;;;;;;;;;;;;;;5073912;28;19909;-69
2021/08/13 11:00:57;;;;;;;;;;;;;;;;;;5073196;28;20699;-69
2021/08/13 11:03:23;;;;;;;;;;;;;;;;;;5073415;28;19931;-69
2021/08/13 11:05:48;;;;;;;;;;;;;;;;;;5070935;28;19913;-69
2021/08/13 11:08:15;;;;;;;;;;;;;;;;;;5073098;28;19949;-69
2021/08/13 11:10:41;;;;;;;;;;;;;;;;;;5073721;28;20382;-69
2021/08/13 11:13:07;;;;;;;;;;;;;;;;;;5073237;28;19913;-69
2021/08/13 11:15:32;;;;;;;;;;;;;;;;;;5072813;28;20003;-69
2021/08/13 11:17:58;;;;;;;;;;;;;;;;;;5072282;28;19937;-69
2021/08/13 11:20:24;;;;;;;;;;;;;;;;;;5071058;28;20693;-69
2021/08/13 11:22:50;;;;;;;;;;;;;;;;;;5074993;28;19912;-69
2021/08/13 11:25:16;;;;;;;;;;;;;;;;;;5072714;28;19913;-69
2021/08/13 11:27:42;;;;;;;;;;;;;;;;;;5073105;28;19978;-69
2021/08/13 11:30:08;;;;;;;;;;;;;;;;;;5072930;28;19916;-69
2021/08/13 11:32:34;;;;;;;;;;;;;;;;;;5068685;28;20030;-69
2021/08/13 11:35:01;;;;;;;;;;;;;;;;;;5076014;28;19935;-69
2021/08/13 11:37:27;;;;;;;;;;;;;;;;;;5072281;28;19913;-69
2021/08/13 11:39:53;;;;;;;;;;;;;;;;;;5072855;28;20090;-69
2021/08/13 11:42:19;;;;;;;;;;;;;;;;;;5072998;28;19912;-69
2021/08/13 11:44:45;;;;;;;;;;;;;;;;;;5070089;28;20284;-69
2021/08/13 11:47:17;;;;;;;;;;;;;;;;;;5073183;28;19915;-69
2021/08/13 11:49:43;;;;;;;;;;;;;;;;;;5077808;28;20368;-69
2021/08/13 11:52:09;;;;;;;;;;;;;;;;;;5076201;28;19986;-69
2021/08/13 11:54:36;;;;;;;;;;;;;;;;;;5076822;28;19913;-69
2021/08/13 11:57:02;;;;;;;;;;;;;;;;;;5076249;28;19920;-69
2021/08/13 11:59:27;;;;;;;;;;;;;;;;;;5073486;28;19912;-69
2021/08/13 12:01:54;;;;;;;;;;;;;;;;;;5078583;28;20364;-69
2021/08/13 12:04:20;;;;;;;;;;;;;;;;;;5076417;28;19912;-69
2021/08/13 12:06:46;;;;;;;;;;;;;;;;;;5076413;28;19920;-69
2021/08/13 12:09:12;;;;;;;;;;;;;;;;;;5076548;28;20258;-69
2021/08/13 12:11:38;;;;;;;;;;;;;;;;;;5072612;28;20019;-69
2021/08/13 12:14:04;;;;;;;;;;;;;;;;;;5078831;28;19920;-69
2021/08/13 12:16:31;;;;;;;;;;;;;;;;;;5077665;28;19928;-70
2021/08/13 12:18:57;;;;;;;;;;;;;;;;;;5076360;28;20011;-70
2021/08/13 12:21:22;;;;;;;;;;;;;;;;;;5075860;28;19939;-70
2021/08/13 12:23:48;;;;;;;;;;;;;;;;;;5073302;28;19940;-70
2021/08/13 12:26:14;;;;;;;;;;;;;;;;;;5075891;28;19919;-72
2021/08/13 12:28:40;;;;;;;;;;;;;;;;;;5077359;28;19970;-70
2021/08/13 12:31:06;;;;;;;;;;;;;;;;;;5076058;28;20363;-70
2021/08/13 12:33:32;;;;;;;;;;;;;;;;;;5075807;28;19919;-69
2021/08/13 12:35:58;;;;;;;;;;;;;;;;;;5074228;28;20399;-70
2021/08/13 12:38:23;;;;;;;;;;;;;;;;;;5073931;28;19920;-70
2021/08/13 12:40:50;;;;;;;;;;;;;;;;;;5077909;28;20381;-69
2021/08/13 12:43:16;;;;;;;;;;;;;;;;;;5075446;28;20520;-69
2021/08/13 12:45:42;;;;;;;;;;;;;;;;;;5075815;28;19995;-69
2021/08/13 12:48:07;;;;;;;;;;;;;;;;;;5075783;28;20301;-70
2021/08/13 12:50:33;;;;;;;;;;;;;;;;;;5070589;28;19916;-69
2021/08/13 12:52:59;;;;;;;;;;;;;;;;;;5079341;28;19909;-69
2021/08/13 12:55:25;;;;;;;;;;;;;;;;;;5075734;28;20287;-69
2021/08/13 12:57:51;;;;;;;;;;;;;;;;;;5075633;28;19919;-70
2021/08/13 13:00:17;;;;;;;;;;;;;;;;;;5074732;28;19930;-70
2021/08/13 13:02:43;;;;;;;;;;;;;;;;;;5072920;28;19913;-70
2021/08/13 13:05:09;;;;;;;;;;;;;;;;;;5076121;28;20360;-70
2021/08/13 13:07:35;;;;;;;;;;;;;;;;;;5076674;28;20011;-70
2021/08/13 13:10:01;;;;;;;;;;;;;;;;;;5075407;28;20021;-70
2021/08/13 13:12:27;;;;;;;;;;;;;;;;;;5075473;28;20375;-70
2021/08/13 13:14:53;;;;;;;;;;;;;;;;;;5073443;28;20388;-70
2021/08/13 13:17:18;;;;;;;;;;;;;;;;;;5074622;28;20054;-70
2021/08/13 13:19:44;;;;;;;;;;;;;;;;;;5075882;28;19923;-70
2021/08/13 13:22:10;;;;;;;;;;;;;;;;;;5075045;28;19912;-70
2021/08/13 13:24:36;;;;;;;;;;;;;;;;;;5075273;28;19919;-70
2021/08/13 13:27:03;;;;;;;;;;;;;;;;;;5074727;28;19957;-70
2021/08/13 13:29:29;;;;;;;;;;;;;;;;;;5071101;28;20640;-70
2021/08/13 13:31:55;;;;;;;;;;;;;;;;;;5078155;28;19944;-70
2021/08/13 13:34:21;;;;;;;;;;;;;;;;;;5074789;28;19916;-70
2021/08/13 13:36:46;;;;;;;;;;;;;;;;;;5074787;28;19925;-70
2021/08/13 13:39:12;;;;;;;;;;;;;;;;;;5074570;28;20389;-70
2021/08/13 13:41:38;;;;;;;;;;;;;;;;;;5070790;28;19921;-70
2021/08/13 13:44:04;;;;;;;;;;;;;;;;;;5077545;28;19908;-70
2021/08/13 13:46:30;;;;;;;;;;;;;;;;;;5075035;28;19944;-70
2021/08/13 13:48:56;;;;;;;;;;;;;;;;;;5074267;28;19920;-70
2021/08/13 13:51:22;;;;;;;;;;;;;;;;;;5074527;28;20311;-70
2021/08/13 13:53:48;;;;;;;;;;;;;;;;;;5071783;28;19993;-70
2021/08/13 13:56:14;;;;;;;;;;;;;;;;;;5074781;28;19931;-70
2021/08/13 13:58:40;;;;;;;;;;;;;;;;;;5075867;28;19909;-70
2021/08/13 14:01:06;;;;;;;;;;;;;;;;;;5074288;28;20010;-70
2021/08/13 14:03:32;;;;;;;;;;;;;;;;;;5073864;28;19912;-70
2021/08/13 14:05:57;;;;;;;;;;;;;;;;;;5072964;28;19919;-70
2021/08/13 14:08:25;;;;;;;;;;;;;;;;;;5072597;28;20387;-70
2021/08/13 14:10:51;;;;;;;;;;;;;;;;;;5076711;28;20382;-70
2021/08/13 14:13:20;;;;;;;;;;;;;;;;;;5073945;28;19913;-70
2021/08/13 14:15:45;;;;;;;;;;;;;;;;;;5073933;28;19924;-70
2021/08/13 14:18:11;;;;;;;;;;;;;;;;;;5073694;28;19912;-70
2021/08/13 14:20:37;;;;;;;;;;;;;;;;;;5070207;28;19995;-70
2021/08/13 14:23:03;;;;;;;;;;;;;;;;;;5076993;28;19987;-70
2021/08/13 14:25:31;;;;;;;;;;;;;;;;;;5075497;28;19908;-70
2021/08/13 14:27:57;;;;;;;;;;;;;;;;;;5073586;28;19917;-71
2021/08/13 14:30:23;;;;;;;;;;;;;;;;;;5074130;28;19916;-70
2021/08/13 14:32:49;;;;;;;;;;;;;;;;;;5071300;28;20464;-70
2021/08/13 14:35:15;;;;;;;;;;;;;;;;;;5073699;28;19908;-70
2021/08/13 14:37:41;;;;;;;;;;;;;;;;;;5074534;28;19913;-70
2021/08/13 14:40:10;;;;;;;;;;;;;;;;;;5073738;28;20397;-70
2021/08/13 14:42:35;;;;;;;;;;;;;;;;;;5073686;28;19924;-70
2021/08/13 14:45:01;;;;;;;;;;;;;;;;;;5073337;28;19912;-70
2021/08/13 14:47:27;;;;;;;;;;;;;;;;;;5070120;28;19920;-70
2021/08/13 14:49:53;;;;;;;;;;;;;;;;;;5075964;28;19962;-70
2021/08/13 14:52:19;;;;;;;;;;;;;;;;;;5073411;28;19958;-70
2021/08/13 14:54:45;;;;;;;;;;;;;;;;;;5073152;28;20327;-70
2021/08/13 14:57:11;;;;;;;;;;;;;;;;;;5073442;28;19926;-70
2021/08/13 14:59:37;;;;;;;;;;;;;;;;;;5069470;28;20387;-70
2021/08/13 15:02:03;;;;;;;;;;;;;;;;;;5076436;28;20360;-70
2021/08/13 15:04:28;;;;;;;;;;;;;;;;;;5073369;28;19913;-70
2021/08/13 15:06:54;;;;;;;;;;;;;;;;;;5072939;28;19958;-70
2021/08/13 15:09:20;;;;;;;;;;;;;;;;;;5073266;28;20398;-70
2021/08/13 15:11:46;;;;;;;;;;;;;;;;;;5070418;28;19967;-70
2021/08/13 15:14:13;;;;;;;;;;;;;;;;;;5073693;28;19920;-70
2021/08/13 15:16:42;;;;;;;;;;;;;;;;;;5074192;28;20020;-70
2021/08/13 15:19:08;;;;;;;;;;;;;;;;;;5073049;28;20042;-70
2021/08/13 15:21:39;;;;;;;;;;;;;;;;;;5072811;28;20007;-70
2021/08/13 15:24:05;;;;;;;;;;;;;;;;;;5072667;28;19908;-70
2021/08/13 15:26:31;;;;;;;;;;;;;;;;;;5068909;28;20378;-70
2021/08/13 15:28:57;;;;;;;;;;;;;;;;;;5076078;28;20053;-70
2021/08/13 15:31:23;;;;;;;;;;;;;;;;;;5072843;28;19909;-70
2021/08/13 15:33:49;;;;;;;;;;;;;;;;;;5072684;28;19916;-70
2021/08/13 15:36:17;;;;;;;;;;;;;;;;;;5072943;28;19916;-70
2021/08/13 15:38:43;;;;;;;;;;;;;;;;;;5069749;28;19920;-70
2021/08/13 15:41:08;;;;;;;;;;;;;;;;;;5073986;28;19908;-70
2021/08/13 15:43:34;;;;;;;;;;;;;;;;;;5073899;28;20280;-70
2021/08/13 15:46:00;;;;;;;;;;;;;;;;;;5072644;28;19920;-70
2021/08/13 15:48:26;;;;;;;;;;;;;;;;;;5072765;28;19947;-70
2021/08/13 15:50:52;;;;;;;;;;;;;;;;;;5070893;28;19909;-70
2021/08/13 15:53:18;;;;;;;;;;;;;;;;;;5073148;28;19948;-70
2021/08/13 15:55:44;;;;;;;;;;;;;;;;;;5073563;28;20308;-70
2021/08/13 15:58:10;;;;;;;;;;;;;;;;;;5072468;28;19966;-70
2021/08/13 16:00:36;;;;;;;;;;;;;;;;;;5072853;28;19967;-70
2021/08/13 16:03:02;;;;;;;;;;;;;;;;;;5072176;28;19908;-70
2021/08/13 16:05:27;;;;;;;;;;;;;;;;;;5069955;28;19913;-70
2021/08/13 16:07:59;;;;;;;;;;;;;;;;;;5075194;28;19909;-71
2021/08/13 16:10:25;;;;;;;;;;;;;;;;;;5072195;28;19974;-71
2021/08/13 16:12:51;;;;;;;;;;;;;;;;;;5072303;28;20360;-70
2021/08/13 16:15:17;;;;;;;;;;;;;;;;;;5072533;28;19920;-70
2021/08/13 16:17:43;;;;;;;;;;;;;;;;;;5069491;28;19916;-71
2021/08/13 16:20:09;;;;;;;;;;;;;;;;;;5073693;28;19909;-70
2021/08/13 16:22:35;;;;;;;;;;;;;;;;;;5072964;28;19912;-70
2021/08/13 16:25:01;;;;;;;;;;;;;;;;;;5072616;28;19923;-70
2021/08/13 16:27:27;;;;;;;;;;;;;;;;;;5072365;28;19946;-70
2021/08/13 16:29:52;;;;;;;;;;;;;;;;;;5070193;28;20000;-70
2021/08/13 16:32:18;;;;;;;;;;;;;;;;;;5072320;28;20368;-71
2021/08/13 16:34:44;;;;;;;;;;;;;;;;;;5074387;28;19909;-70
2021/08/13 16:37:10;;;;;;;;;;;;;;;;;;5075787;28;19985;-70